Terminal Aerodrome Forecast
Issued by NWS Burlington, VT

Home | Current Version | Previous Version | Text Only | Print | Product List | Glossary On
Versions: 1 2 3 4 5 6 7 8 9 10 11 12 13 14 15 16 17 18 19 20 21 22 23
000
FTUS41 KBTV 291137
TAFBTV
TAF
KBTV 291137Z 2912/3012 35005KT P6SM VCSH SCT025 OVC040
     FM291600 34010G18KT P6SM OVC035
     FM292300 34009KT P6SM OVC045
     FM300500 35005KT P6SM BKN045
     FM300900 VRB03KT P6SM SCT040=

USA.gov is the U.S. government's official web portal to all federal, state and local government web resources and services.